Hovedside
METAR-TAF:

METAR-TAF

Lufthavner :

Oljeplattform

A12-cpp, Nederland

breddegrad: 55-23-57N, lengdegrad: 3-48-37E, høyde over havet: 33 m

Gjeldene værobservasjon

Denne rapporten ble laget for 34 minutter siden, klokken 13:55 UTC
Vind 33 kt fra Sørvest
Temperatur 9°C
Luftfuktighet 76%
Trykk 1007 hPa
Sikt 10 km eller mer

METAR: EHAK 051355Z AUTO 23033KT 9999 ///////// 09/05 Q1007 W///H///

Tid: 15:29 (14:29 UTC)


TAF: fraværende

Værobservasjoner og værvarsel for over 4000 flyplasser (METAR- og TAF-rapporter).

Tilgjengelige stasjoner er representert av de røde og gule prikkene på kartet.

Hold musepekeren over prikken for å se navnet på stasjonen.

Klikk så for å se værobservasjoner og -varsler.

For å forandre kartet kan du klikke på den grønne knappen med svart kryss for å zoome inn, på den grønne knappen med strek for å zoome ut, eller på de grønne pilene for å se tilstøtende kart.


METAR-TAF: